Home > Products > Valid Products > TAF

000
FTUS45 KRIW 141100
TAFCOD
TAF
KCOD 141120Z 1412/1512 VRB05KT P6SM FEW110 SCT250
     FM141800 02008KT P6SM SCT090 SCT120
     FM142100 VRB15G25KT P6SM VCTS SCT080CB BKN120
     FM150300 VRB06KT P6SM VCSH BKN090
      AMD LTD TO CLD VIS AND WIND=



000
FTUS45 KRIW 141100
TAFLND
TAF
KLND 141120Z 1412/1512 VRB05KT P6SM SCT250
     FM141900 03008KT P6SM SCT090
     FM142100 VRB10G25KT P6SM VCTS SCT080CB BKN120
     FM150200 VRB05KT P6SM VCSH FEW080 BKN110=



000
FTUS45 KRIW 141100
TAFWRL
TAF
KWRL 141120Z 1412/1512 VRB05KT P6SM SCT250
     FM141900 VRB05KT P6SM SCT100
     FM142300 VRB05G15KT P6SM VCSH BKN110
     FM150300 15007KT P6SM BKN120=



000
FTUS45 KRIW 141100
TAFRIW
TAF
KRIW 141120Z 1412/1512 07005KT P6SM SCT250
     FM141900 04006KT P6SM SCT090
     FM142300 05010KT P6SM VCSH SCT090 BKN110
     FM150300 08009KT P6SM SCT100 BKN130=



000
FTUS45 KRIW 141100
TAFBPI
TAF
KBPI 141120Z 1412/1512 VRB04KT P6SM SCT250
     FM141900 VRB06KT P6SM SCT110
     FM142200 VRB05KT P6SM VCSH BKN110
     FM150300 10006KT P6SM SCT120=



000
FTUS45 KRIW 141100
TAFRKS
TAF
KRKS 141120Z 1412/1512 08008KT P6SM SCT250
     FM142000 07010KT P6SM SCT100
     FM150300 06013KT P6SM SCT110
     FM150900 12007KT P6SM SCT110=



000
FTUS45 KRIW 141100
TAFCPR
TAF
KCPR 141120Z 1412/1512 VRB05KT P6SM FEW120
     FM141800 04009KT P6SM SCT100
     FM150300 09009KT P6SM SCT120
     FM150800 VRB05KT P6SM SCT120 BKN150=



000
FTUS45 KRIW 141100
TAFJAC
TAF
KJAC 141120Z 1412/1512 36007KT P6SM SCT110 BKN200
     FM141500 VRB05KT P6SM SCT100
     FM142000 VRB10G25KT P6SM VCTS FEW060CB OVC100
     FM150300 36006KT P6SM VCSH SCT070 BKN090
      AMD LTD TO CLD VIS AND WIND=



000
FTUS45 KRIW 140700 AAA
TAFWRL
TAF AMD
KWRL 140750Z 1408/1506 VRB05KT P6SM VCSH BKN120
     FM141000 VRB05KT P6SM SCT250
     FM141900 VRB05KT P6SM SCT100
     FM142300 VRB05G15KT P6SM VCSH BKN110
     FM150300 15007KT P6SM BKN120=



000
FTUS45 KRIW 140700 AAA
TAFCPR
TAF AMD
KCPR 140712Z 1407/1506 05005KT P6SM VCSH SCT100 BKN150
     FM141100 02007KT P6SM SCT120
     FM141800 04009KT P6SM SCT100
     FM150000 05008KT P6SM SCT100 BKN140
     FM150300 09009KT P6SM BKN120=



000
FTUS45 KRIW 140500
TAFWRL
TAF
KWRL 140522Z 1406/1506 VRB05KT P6SM SCT120
     FM141100 VRB05KT P6SM SCT250
     FM141900 VRB05KT P6SM SCT100
     FM142300 VRB05G15KT P6SM VCSH BKN110
     FM150300 15007KT P6SM BKN120=



000
FTUS45 KRIW 140500
TAFRKS
TAF
KRKS 140522Z 1406/1506 06013KT P6SM FEW250
     FM141100 08008KT P6SM SCT250
     FM142000 07010KT P6SM SCT100
     FM150300 06013KT P6SM SCT110=



000
FTUS45 KRIW 140500
TAFLND
TAF
KLND 140522Z 1406/1506 VRB06KT P6SM SCT110
     FM141200 VRB05KT P6SM SCT250
     FM141900 03008KT P6SM SCT090
     FM142100 VRB10G25KT P6SM VCTS SCT080CB BKN120
     FM150200 VRB05KT P6SM VCSH FEW080 BKN110=



000
FTUS45 KRIW 140500
TAFRIW
TAF
KRIW 140522Z 1406/1506 07009KT P6SM SCT120
     FM141200 VRB04KT P6SM SCT250
     FM141900 04006KT P6SM SCT090
     FM142300 05010KT P6SM VCSH SCT090 BKN110
     FM150300 08009KT P6SM SCT100 BKN130=



000
FTUS45 KRIW 140500
TAFJAC
TAF
KJAC 140522Z 1406/1506 36007KT P6SM FEW110
     FM141800 VRB05KT P6SM SCT090 SCT110
     FM142000 VRB10G25KT P6SM VCTS FEW060CB OVC100
     FM150300 36006KT P6SM VCSH SCT070 BKN090
      AMD LTD TO CLD VIS AND WIND=



000
FTUS45 KRIW 140500
TAFCPR
TAF
KCPR 140522Z 1406/1506 05005KT P6SM FEW120
     FM141800 04009KT P6SM SCT100
     FM150000 05008KT P6SM SCT100 BKN140
     FM150300 09009KT P6SM BKN120=



000
FTUS45 KRIW 140500
TAFCOD
TAF
KCOD 140522Z 1406/1506 VRB06KT P6SM SCT110
     FM141200 VRB05KT P6SM FEW110 SCT250
     FM141800 02008KT P6SM SCT090 SCT120
     FM142100 VRB15G25KT P6SM VCTS SCT080CB BKN120
     FM150300 VRB06KT P6SM VCSH BKN090
      AMD LTD TO CLD VIS AND WIND=



000
FTUS45 KRIW 140500
TAFBPI
TAF
KBPI 140522Z 1406/1506 01006KT P6SM SKC
     FM141900 VRB06KT P6SM SCT110
     FM150200 VRB05KT P6SM BKN110=



000
FTUS45 KRIW 132300
TAFRIW
TAF
KRIW 132329Z 1400/1424 01011KT P6SM SCT110
     FM140500 07007KT P6SM FEW100
     FM141900 VRB06KT P6SM FEW070 BKN150
     FM142200 VRB10G25KT P6SM VCTS FEW080CB BKN100=



000
FTUS45 KRIW 132300
TAFJAC
TAF
KJAC 132329Z 1400/1424 36007KT P6SM FEW090
     FM141600 19007KT P6SM FEW070
     FM141800 VRB10KT P6SM VCSH FEW060 BKN090
     FM142000 VRB10G25KT P6SM VCTS FEW060CB OVC100
      AMD LTD TO CLD VIS AND WIND=



000
FTUS45 KRIW 132300
TAFRKS
TAF
KRKS 132329Z 1400/1424 32010KT P6SM SCT100
     FM140200 03012G18KT P6SM SCT100
     FM140600 08007KT P6SM SKC WS005/06030KT
     FM141000 07007KT P6SM FEW100=



000
FTUS45 KRIW 132300
TAFWRL
TAF
KWRL 132329Z 1400/1424 02006KT P6SM SCT110
     FM140200 02008KT P6SM FEW120
     FM140600 VRB05KT P6SM SKC
     FM141900 VRB05KT P6SM BKN150
     FM142200 28010G25KT P6SM VCSH SCT080 BKN150=



000
FTUS45 KRIW 132300
TAFCOD
TAF
KCOD 132329Z 1400/1424 03008KT P6SM SCT100
     FM140200 VRB05KT P6SM FEW100
     FM141800 01010KT P6SM FEW080 BKN150
     FM142100 28010G25KT P6SM VCTS FEW070CB OVC150
      AMD LTD TO CLD VIS AND WIND=



000
FTUS45 KRIW 132300
TAFBPI
TAF
KBPI 132329Z 1400/1424 33008KT P6SM SCT100
     FM140300 VRB05KT P6SM SKC
     FM142000 VRB06KT P6SM BKN150=



000
FTUS45 KRIW 132300
TAFLND
TAF
KLND 132329Z 1400/1424 VRB06KT P6SM VCSH SCT100
     FM140300 VRB06KT P6SM FEW100
     FM141900 02008KT P6SM VCSH FEW060 BKN100
     FM142100 VRB10G25KT P6SM VCTS FEW060CB OVC100=



000
FTUS45 KRIW 132300
TAFCPR
TAF
KCPR 132329Z 1400/1424 01009KT P6SM SCT090
     FM140200 03011KT P6SM SCT120
     FM140800 08005KT P6SM SKC
     FM141700 04010KT P6SM FEW080 SCT200
     FM142300 03011KT P6SM VCSH SCT070 BKN150=



000
FTUS45 KRIW 131700
TAFWRL
TAF
KWRL 131720Z 1318/1418 VRB03KT P6SM SCT120
     FM132000 34008KT P6SM SCT120
     FM140200 02008KT P6SM FEW120
     FM140600 VRB05KT P6SM SKC=



000
FTUS45 KRIW 131700
TAFCPR
TAF
KCPR 131720Z 1318/1418 VRB06KT P6SM FEW120
     FM132000 01009KT P6SM SCT090
     FM140200 03008KT P6SM SCT120
     FM140800 08005KT P6SM SKC=



000
FTUS45 KRIW 131700
TAFRKS
TAF
KRKS 131720Z 1318/1418 33007KT P6SM FEW080
     FM132100 36011KT P6SM SCT100
     FM140200 03012G18KT P6SM SCT100
     FM140600 08007KT P6SM SKC=



000
FTUS45 KRIW 131700
TAFBPI
TAF
KBPI 131720Z 1318/1418 VRB04KT P6SM SKC
     FM132000 31008KT P6SM SCT120
     FM140300 VRB05KT P6SM SKC=



000
FTUS45 KRIW 131700
TAFLND
TAF
KLND 131720Z 1318/1418 VRB04KT P6SM SKC
     FM132000 VRB10G15KT P6SM VCSH SCT100
     FM140300 VRB06KT P6SM FEW100=



000
FTUS45 KRIW 131700
TAFCOD
TAF
KCOD 131720Z 1318/1418 02006KT P6SM SCT120
     FM132000 03008KT P6SM VCSH SCT100
     FM140200 VRB05KT P6SM FEW100
      AMD LTD TO CLD VIS AND WIND=



000
FTUS45 KRIW 131700
TAFRIW
TAF
KRIW 131720Z 1318/1418 VRB05KT P6SM SKC
     FM132000 02011KT P6SM SCT110
     FM140300 07007KT P6SM FEW100=



000
FTUS45 KRIW 131700
TAFJAC
TAF
KJAC 131720Z 1318/1418 VRB04KT P6SM SKC
     FM132000 30007KT P6SM VCSH SCT090
     FM140200 35008KT P6SM SKC
     FM141600 19007KT P6SM FEW070
      AMD LTD TO CLD VIS AND WIND=



000
FTUS45 KRIW 131100
TAFRIW
TAF
KRIW 131123Z 1312/1412 29007KT P6SM SKC
     FM131400 VRB05KT P6SM SKC
     FM132000 02011KT P6SM SCT110
     FM140300 07007KT P6SM FEW100=



000
FTUS45 KRIW 131100
TAFRKS
TAF
KRKS 131123Z 1312/1412 VRB05KT P6SM SKC
     FM131800 33007KT P6SM FEW080
     FM132100 36011KT P6SM SCT100
     FM140200 03012G18KT P6SM SCT100
     FM140600 08007KT P6SM SKC=



000
FTUS45 KRIW 131100
TAFWRL
TAF
KWRL 131123Z 1312/1412 VRB03KT P6SM SCT120
     FM132000 34008KT P6SM SCT120
     FM140200 02008KT P6SM FEW120
     FM140600 VRB05KT P6SM SKC=



000
FTUS45 KRIW 131100
TAFLND
TAF
KLND 131123Z 1312/1412 VRB04KT P6SM SKC
     FM132000 VRB10G15KT P6SM VCSH SCT100
     FM140300 26006KT P6SM FEW100=



000
FTUS45 KRIW 131100
TAFBPI
TAF
KBPI 131123Z 1312/1412 VRB04KT P6SM SKC
     FM132000 31008KT P6SM SCT120
     FM140300 VRB05KT P6SM SKC=



000
FTUS45 KRIW 131100
TAFCOD
TAF
KCOD 131123Z 1312/1412 VRB05KT P6SM FEW110
     FM131700 02006KT P6SM SCT120
     FM132000 03008KT P6SM VCSH SCT100
     FM140200 VRB05KT P6SM FEW100
      AMD LTD TO CLD VIS AND WIND=



000
FTUS45 KRIW 131100
TAFCPR
TAF
KCPR 131123Z 1312/1412 VRB06KT P6SM FEW120
     FM132000 01009KT P6SM SCT090
     FM140200 03008KT P6SM SCT120
     FM140800 08005KT P6SM SKC=



000
FTUS45 KRIW 131100
TAFJAC
TAF
KJAC 131123Z 1312/1412 VRB04KT P6SM SKC
     FM132000 30007KT P6SM VCSH SCT090
     FM140200 35008KT P6SM SKC
      AMD LTD TO CLD VIS AND WIND=



000
FTUS45 KRIW 130500
TAFCPR
TAF
KCPR 130522Z 1306/1406 VRB05KT P6SM BKN080
     FM130900 VRB04KT P6SM SCT100
     FM131200 02007KT P6SM FEW110
     FM132000 01009KT P6SM SCT080 SCT110
     FM140100 03012KT P6SM VCSH BKN080=



000
FTUS45 KRIW 130500
TAFJAC
TAF
KJAC 130522Z 1306/1406 02008KT P6SM FEW100
     FM130800 VRB04KT P6SM SKC
     FM131800 35007KT P6SM SCT090
     FM132300 34009KT P6SM VCSH FEW050 BKN080
      AMD LTD TO CLD VIS AND WIND=



000
FTUS45 KRIW 130500
TAFLND
TAF
KLND 130522Z 1306/1406 25007KT P6SM SCT110
     FM130900 VRB04KT P6SM FEW120
     FM132000 04007KT P6SM SCT090 BKN130
     FM132300 02008KT P6SM VCSH BKN090=



000
FTUS45 KRIW 130500
TAFRKS
TAF
KRKS 130522Z 1306/1406 06015G23KT P6SM VCSH BKN110
     FM130800 05011KT P6SM FEW110
     FM131100 VRB05KT P6SM SKC
     FM131900 36008KT P6SM SCT110 SCT200
     FM132300 04014KT P6SM VCSH BKN090=



000
FTUS45 KRIW 130500
TAFWRL
TAF
KWRL 130522Z 1306/1406 VRB04KT P6SM SCT110
     FM130800 VRB03KT P6SM SKC
     FM132000 01008KT P6SM FEW100 SCT140
     FM140100 35010KT P6SM VCSH SCT090 BKN120=



000
FTUS45 KRIW 130500
TAFBPI
TAF
KBPI 130522Z 1306/1406 VRB05KT P6SM SCT090
     FM130800 VRB04KT P6SM FEW110
     FM131900 29008KT P6SM SCT100 SCT140
     FM132300 30011KT P6SM VCSH BKN090=



000
FTUS45 KRIW 130500
TAFRIW
TAF
KRIW 130522Z 1306/1406 28006KT P6SM SCT110
     FM131000 VRB04KT P6SM FEW110
     FM131900 02007KT P6SM SCT100
     FM140100 36010G16KT P6SM VCSH SCT090 BKN130=



000
FTUS45 KRIW 130500
TAFCOD
TAF
KCOD 130522Z 1306/1406 24006KT P6SM FEW110
     FM131800 03006KT P6SM SCT100 SCT140
     FM132300 01008KT P6SM VCSH BKN090
      AMD LTD TO CLD VIS AND WIND=



000
FTUS45 KRIW 130300 AAB
TAFRKS
TAF AMD
KRKS 130323Z 1303/1324 06019G27KT P6SM BKN100
     FM130500 07014KT P6SM FEW110
     FM131300 VRB05KT P6SM SKC
     FM131900 35008KT P6SM SCT110 SCT200
     FM132300 03012KT P6SM BKN100=



000
FTUS45 KRIW 130200 AAA
TAFLND
TAF AMD
KLND 130253Z 1303/1324 29009KT P6SM TSRA FEW045 BKN070CB
     FM130400 26007KT P6SM VCSH SCT070 BKN110
     FM130600 VRB05KT P6SM SCT110
     FM130900 VRB04KT P6SM FEW110
     FM132000 04008KT P6SM SCT090 BKN120
     FM132300 02007KT P6SM VCSH BKN090=



000
FTUS45 KRIW 130200 AAA
TAFRKS
TAF AMD
KRKS 130239Z 1303/1324 06015KT P6SM BKN100
     FM130500 07011KT P6SM FEW110
     FM131300 VRB05KT P6SM SKC
     FM131900 35008KT P6SM SCT110 SCT200
     FM132300 03012KT P6SM BKN100=



000
FTUS45 KRIW 122300
TAFJAC
TAF
KJAC 122326Z 1300/1324 VRB10G15KT P6SM VCTS SCT050CB BKN120
     FM130200 VRB05KT P6SM VCSH SCT070 BKN150
     FM130700 36006KT P6SM SCT100
     FM131900 VRB08KT P6SM VCSH SCT080 BKN100
      AMD LTD TO CLD VIS AND WIND=



000
FTUS45 KRIW 122300
TAFCOD
TAF
KCOD 122326Z 1300/1324 36008KT P6SM VCTS SCT070CB BKN100
     FM130200 33007KT P6SM VCSH SCT070 BKN120
     FM130400 VRB06KT P6SM SCT150
     FM132000 33010G18KT P6SM VCSH FEW080 BKN150
      AMD LTD TO CLD VIS AND WIND=



000
FTUS45 KRIW 122300
TAFBPI
TAF
KBPI 122326Z 1300/1324 36009KT P6SM VCSH SCT080 BKN120
     FM130300 VRB05KT P6SM SCT110
     FM131900 33011KT P6SM FEW100 SCT200=



000
FTUS45 KRIW 122300
TAFWRL
TAF
KWRL 122326Z 1300/1324 33007KT P6SM VCSH SCT100 BKN140
     FM130500 16005KT P6SM SCT110
     FM132100 35010KT P6SM FEW080 SCT150=



000
FTUS45 KRIW 122300
TAFRKS
TAF
KRKS 122326Z 1300/1324 36010KT P6SM VCSH SCT080 BKN140
     FM130400 06012KT P6SM SCT110
     FM131400 VRB06KT P6SM FEW100
     FM131800 34011KT P6SM SCT100 BKN200=



000
FTUS45 KRIW 122300
TAFRIW
TAF
KRIW 122326Z 1300/1324 31014G20KT P6SM VCTS SCT080CB BKN110
     FM130200 29009KT P6SM SCT080 BKN110
     FM131000 VRB05KT P6SM SCT110
     FM132300 33010G18KT P6SM VCSH SCT070 BKN150=



000
FTUS45 KRIW 122300
TAFLND
TAF
KLND 122326Z 1300/1324 35008KT P6SM VCTS FEW045 SCT070CB BKN110
     FM130400 25007KT P6SM VCSH SCT080 BKN120
     FM131000 VRB04KT P6SM SCT100
     FM132100 VRB10KT P6SM VCSH SCT070 BKN150=



000
FTUS45 KRIW 122300
TAFCPR
TAF
KCPR 122326Z 1300/1324 03010KT P6SM VCTS SCT070CB BKN100
     FM130200 03007KT P6SM VCSH SCT110 BKN150
     FM130600 VRB05KT P6SM SCT100
     FM132200 33010G15KT P6SM VCSH SCT070 BKN150=



000
FTUS45 KRIW 122100 AAA
TAFRIW
TAF AMD
KRIW 122154Z 1222/1318 VRB10G15KT P6SM VCTS SCT080CB BKN110
     FM130200 30010KT P6SM VCSH SCT080 BKN110
     FM131000 VRB06KT P6SM SCT110=



000
FTUS45 KRIW 121700
TAFLND
TAF
KLND 121720Z 1218/1318 VRB05KT P6SM SCT120
     FM122000 04006KT P6SM VCTS FEW035 SCT070CB BKN110
     FM130400 25006KT P6SM VCSH SCT040 BKN110
     FM131000 VRB05KT P6SM SCT100=



000
FTUS45 KRIW 121700
TAFRKS
TAF
KRKS 121720Z 1218/1318 VRB05KT P6SM SCT120
     FM122100 03011KT P6SM VCSH SCT080 BKN150
     FM130400 06013KT P6SM SCT110
     FM131400 VRB06KT P6SM FEW100=



000
FTUS45 KRIW 121700
TAFJAC
TAF
KJAC 121720Z 1218/1318 20007KT P6SM VCSH SCT100 BKN150
     FM122000 VRB10G15KT P6SM VCTS SCT050CB BKN120
     FM130100 VRB05KT P6SM VCSH FEW040 SCT070 BKN150
     FM130700 36006KT P6SM SCT100
      AMD LTD TO CLD VIS AND WIND=



000
FTUS45 KRIW 121700
TAFWRL
TAF
KWRL 121720Z 1218/1318 16006KT P6SM SCT110
     FM122000 34007KT P6SM VCSH SCT100 BKN150
     FM130500 16005KT P6SM SCT110=



000
FTUS45 KRIW 121700
TAFCPR
TAF
KCPR 121720Z 1218/1318 03010KT P6SM FEW030 SCT080
     FM122100 04008KT P6SM VCTS SCT070CB BKN100
     FM130200 03007KT P6SM VCSH SCT110 BKN150
     FM130600 VRB05KT P6SM SCT100=



000
FTUS45 KRIW 121700
TAFRIW
TAF
KRIW 121720Z 1218/1318 VRB05KT P6SM SCT150
     FM121900 03010KT P6SM VCSH SCT080 BKN110
     FM131000 VRB06KT P6SM SCT110=



000
FTUS45 KRIW 121700
TAFBPI
TAF
KBPI 121720Z 1218/1318 VRB05KT P6SM SCT120
     FM122000 VRB06KT P6SM VCSH SCT080 BKN150
     FM130300 VRB05KT P6SM SCT110=



000
FTUS45 KRIW 121700
TAFCOD
TAF
KCOD 121720Z 1218/1318 03007KT P6SM VCSH SCT070 BKN120
     FM122000 VRB10G15KT P6SM VCTS SCT060CB BKN100
     FM130200 33007KT P6SM VCSH SCT070 BKN150
     FM130400 VRB06KT P6SM SCT150
      AMD LTD TO CLD VIS AND WIND=



000
FTUS45 KRIW 121100
TAFJAC
TAF
KJAC 121126Z 1212/1312 VRB05KT P6SM VCSH SCT090 BKN120
     FM121500 VRB05KT P6SM SCT120
     FM121800 20007KT P6SM VCSH SCT100 BKN150
     FM122000 VRB10G15KT P6SM VCTS SCT050CB BKN120
     FM130100 VRB05KT P6SM VCSH SCT070 BKN150
     FM130300 36006KT P6SM SCT100
      AMD LTD TO CLD VIS AND WIND=



000
FTUS45 KRIW 121100
TAFBPI
TAF
KBPI 121126Z 1212/1312 VRB05KT P6SM SCT120
     FM122000 VRB06KT P6SM VCSH SCT080 BKN150
     FM130300 VRB05KT P6SM SCT110=



000
FTUS45 KRIW 121100
TAFRKS
TAF
KRKS 121126Z 1212/1312 08006KT P6SM OVC120
     FM121330 VRB05KT P6SM SCT120
     FM122100 03011KT P6SM VCSH SCT080 BKN150
     FM130400 06013KT P6SM SCT110=



000
FTUS45 KRIW 121100
TAFRIW
TAF
KRIW 121126Z 1212/1312 VRB05KT P6SM SCT150
     FM121900 03010KT P6SM VCSH SCT080 BKN110
     FM130300 VRB06KT P6SM SCT110=



000
FTUS45 KRIW 121100
TAFLND
TAF
KLND 121126Z 1212/1312 VRB05KT P6SM SCT120
     FM122000 04006KT P6SM VCTS SCT070CB BKN110
     FM130400 25006KT P6SM SCT110=



000
FTUS45 KRIW 121100
TAFCOD
TAF
KCOD 121126Z 1212/1312 VRB05KT P6SM VCSH SCT070 BKN150
     FM121700 03007KT P6SM VCSH SCT070 BKN120
     FM122000 VRB10G15KT P6SM VCTS SCT060CB BKN100
     FM130200 33007KT P6SM VCSH SCT070 BKN150
     FM130400 VRB06KT P6SM SCT150
      AMD LTD TO CLD VIS AND WIND=



000
FTUS45 KRIW 121100
TAFCPR
TAF
KCPR 121126Z 1212/1312 29006KT P6SM SCT100
     FM121700 03010KT P6SM FEW030 SCT080
     FM122100 04008KT P6SM VCTS SCT070CB BKN100
     FM130200 03007KT P6SM VCSH SCT110 BKN150
     FM130400 VRB05KT P6SM SCT100=



000
FTUS45 KRIW 121100
TAFWRL
TAF
KWRL 121126Z 1212/1312 16006KT P6SM SCT110
     FM122000 34007KT P6SM VCSH SCT100 BKN150
     FM130300 16005KT P6SM SCT110=



000
FTUS45 KRIW 120800 AAA
TAFRIW
TAF AMD
KRIW 120800Z 1208/1306 04006KT P6SM BCFG FEW005 SCT150
     FM121200 VRB05KT P6SM SCT150
     FM122000 03010KT P6SM VCSH SCT080 BKN110
     FM130400 VRB06KT P6SM SCT110=



000
FTUS45 KRIW 120500
TAFCOD
TAF
KCOD 120523Z 1206/1306 21007KT P6SM SCT110 BKN150
     FM121900 03007KT P6SM VCSH SCT070 BKN120
     FM122200 VRB05G15KT P6SM VCTS SCT060CB BKN100
     FM130200 33007KT P6SM VCSH SCT070 BKN150
     FM130500 VRB06KT P6SM SCT150
      AMD LTD TO CLD VIS AND WIND=



000
FTUS45 KRIW 120500
TAFLND
TAF
KLND 120523Z 1206/1306 VRB05KT P6SM SCT110 SCT200
     FM122000 04006KT P6SM VCSH SCT070 BKN110
     FM130400 25006KT P6SM SCT110=



000
FTUS45 KRIW 120500
TAFWRL
TAF
KWRL 120523Z 1206/1306 16006KT P6SM SCT110
     FM122300 34007KT P6SM VCSH SCT080 BKN120
     FM130300 16005KT P6SM SCT110=



000
FTUS45 KRIW 120500
TAFCPR
TAF
KCPR 120523Z 1206/1306 09007KT P6SM -RA SCT060 BKN090
     FM121000 VRB05KT P6SM SCT100
     FM121600 03010KT P6SM FEW030 SCT080
     FM122200 04008KT P6SM VCSH SCT070 BKN100
     FM130400 VRB05KT P6SM SCT110=



000
FTUS45 KRIW 120500
TAFRIW
TAF
KRIW 120523Z 1206/1306 04006KT P6SM SCT110 SCT200
     FM122000 03010KT P6SM VCSH SCT080 BKN110
     FM130400 VRB06KT P6SM SCT110=



000
FTUS45 KRIW 120500
TAFJAC
TAF
KJAC 120523Z 1206/1306 02006KT P6SM VCSH SCT060 BKN100
     FM120800 VRB03KT P6SM SCT110
     FM121700 20007KT P6SM VCSH SCT090 BKN150
     FM122000 VRB06KT P6SM VCTS SCT050CB BKN120
     FM130100 01005KT P6SM VCSH SCT070 BKN150
      AMD LTD TO CLD VIS AND WIND=



000
FTUS45 KRIW 120500
TAFRKS
TAF
KRKS 120523Z 1206/1306 06012KT P6SM VCSH SCT070 BKN110
     FM120800 07010KT P6SM SCT120
     FM122200 04011KT P6SM SCT080 BKN150
     FM130400 07013KT P6SM SCT110=



000
FTUS45 KRIW 120500
TAFBPI
TAF
KBPI 120523Z 1206/1306 VRB06KT P6SM VCSH SCT060 BKN110
     FM120900 VRB05KT P6SM SCT120
     FM122200 VRB06KT P6SM VCSH SCT080 BKN150
     FM130300 VRB05KT P6SM SCT110=



000
FTUS45 KRIW 112300
TAFJAC
TAF
KJAC 112332Z 1200/1224 25007KT P6SM VCTS SCT060CB BKN100
     FM120300 01006KT P6SM VCSH SCT060 BKN150
     FM120600 VRB03KT P6SM SCT150
     FM121500 17007KT P6SM VCSH SCT090 BKN120
     FM121900 VRB06KT P6SM VCTS SCT040CB BKN150
      AMD LTD TO CLD VIS AND WIND=



000
FTUS45 KRIW 112300
TAFBPI
TAF
KBPI 112332Z 1200/1224 12010KT P6SM VCSH SCT070 BKN110
     FM120500 VRB06KT P6SM VCSH SCT060 BKN100
     FM120900 VRB06KT P6SM SCT080 BKN150
     FM121200 VRB04KT P6SM FEW150
     FM122200 VRB06KT P6SM VCSH SCT080 BKN150=



000
FTUS45 KRIW 112300
TAFRKS
TAF
KRKS 112332Z 1200/1224 30009KT P6SM VCTS SCT060CB BKN090
     FM120500 06007KT P6SM VCSH SCT060 BKN100
     FM121000 07009KT P6SM SCT100
     FM122200 03004KT P6SM VCSH SCT040 OVC120=



000
FTUS45 KRIW 112300
TAFRIW
TAF
KRIW 112332Z 1200/1224 06006KT P6SM VCSH SCT060 BKN100
      TEMPO 1200/1201 5SM -SHRA BKN050
     FM120300 03007KT P6SM SCT090 BKN150
     FM120800 VRB05KT P6SM SCT120
     FM122000 03007KT P6SM VCSH SCT080 BKN100=



000
FTUS45 KRIW 112300
TAFLND
TAF
KLND 112332Z 1200/1224 32007KT P6SM VCSH SCT070 BKN100
     FM120300 25007KT P6SM VCSH SCT060 BKN080
     FM120800 VRB05KT P6SM FEW110 SCT200
     FM122000 03007KT P6SM VCSH SCT070 BKN100=



000
FTUS45 KRIW 112300
TAFCPR
TAF
KCPR 112332Z 1200/1224 03011G17KT P6SM VCSH SCT060 BKN090
     FM120400 09007KT P6SM VCSH SCT070 BKN150
     FM121000 VRB05KT P6SM SCT100
     FM121700 03010KT P6SM VCSH FEW030 BKN090
     FM122200 VRB05G15KT P6SM VCTS FEW030CB BKN090=



000
FTUS45 KRIW 112300
TAFWRL
TAF
KWRL 112332Z 1200/1224 15010KT P6SM VCSH SCT070 BKN110
     FM120300 VRB06KT P6SM SCT120
     FM122300 28011KT P6SM VCSH FEW080 BKN120=



000
FTUS45 KRIW 112300
TAFCOD
TAF
KCOD 112332Z 1200/1224 02009KT P6SM VCTS SCT070CB BKN120
     FM120300 30007KT P6SM SCT110 BKN150
     FM121700 30010KT P6SM VCSH SCT050 BKN100
     FM122200 VRB05G15KT P6SM VCTS SCT040CB BKN100
      AMD LTD TO CLD VIS AND WIND=



000
FTUS45 KRIW 112200 AAA
TAFCPR
TAF AMD
KCPR 112208Z 1122/1218 VRB06KT P6SM VCTS SCT060CB BKN100
      TEMPO 1122/1124 VRB10G20KT 6SM -TSRA BKN030CB OVC080
     FM120400 09007KT P6SM VCSH SCT070 BKN150
     FM120800 VRB05KT P6SM SCT100
     FM121700 03010KT P6SM VCSH FEW030 BKN090=



000
FTUS45 KRIW 111700
TAFLND
TAF
KLND 111730Z 1118/1218 VRB05KT P6SM VCSH BKN100
     FM112000 05006KT P6SM VCTS SCT070CB BKN100
     FM120300 25007KT P6SM VCSH SCT060 BKN080
     FM120800 VRB05KT P6SM FEW110 SCT200=



000
FTUS45 KRIW 111700
TAFRKS
TAF
KRKS 111730Z 1118/1218 28009KT P6SM VCTS SCT050CB BKN090
      TEMPO 1119/1122 VRB10G20KT 2SM +TSRA BKN030CB
     FM120300 06007KT P6SM VCSH SCT060 BKN100
     FM121000 07009KT P6SM SCT100
     FM121700 03004KT P6SM VCSH SCT035 OVC120=



000
FTUS45 KRIW 111700
TAFCOD
TAF
KCOD 111730Z 1118/1218 36012G22KT P6SM FEW022 BKN110
     FM111900 03009KT P6SM VCTS SCT070CB BKN100
     FM120300 30007KT P6SM SCT110 BKN150
      AMD LTD TO CLD VIS AND WIND=



000
FTUS45 KRIW 111700
TAFRIW
TAF
KRIW 111730Z 1118/1218 VRB06KT P6SM SCT110 SCT200
     FM111900 VRB05KT P6SM VCSH SCT100 BKN150
     FM112030 05009KT P6SM VCTS SCT070CB BKN120
     FM120300 03007KT P6SM SCT090 BKN150
     FM120800 VRB05KT P6SM SCT120=



000
FTUS45 KRIW 111700
TAFWRL
TAF
KWRL 111730Z 1118/1218 VRB05KT P6SM FEW120
     FM111830 36012G16KT P6SM SCT120
     FM112200 35007KT P6SM VCTS SCT070CB BKN110
     FM120300 VRB06KT P6SM SCT120=



000
FTUS45 KRIW 111700
TAFJAC
TAF
KJAC 111730Z 1118/1218 VRB05KT P6SM SCT090
     FM111900 24007KT P6SM VCTS SCT060CB BKN110
     FM120300 01006KT P6SM VCSH SCT060 BKN150
     FM120600 VRB03KT P6SM SCT150
     FM121500 17007KT P6SM VCSH SCT090 BKN120
      AMD LTD TO CLD VIS AND WIND=



000
FTUS45 KRIW 111700
TAFBPI
TAF
KBPI 111730Z 1118/1218 VRB05KT P6SM VCSH SCT080 BKN150
     FM111900 28008KT P6SM VCTS SCT070CB BKN110
     FM120600 VRB06KT P6SM VCSH SCT060 BKN100
     FM120900 VRB06KT P6SM SCT080 BKN150
     FM121200 VRB04KT P6SM FEW150=



000
FTUS45 KRIW 111700
TAFCPR
TAF
KCPR 111730Z 1118/1218 VRB06KT P6SM VCSH SCT060 BKN100
     FM111900 VRB06KT P6SM VCTS SCT060CB BKN100
      TEMPO 1120/1124 VRB10G20KT 2SM +TSRA BKN030CB OVC080
     FM120400 09007KT P6SM VCSH SCT070 BKN150
     FM120800 VRB05KT P6SM SCT100
     FM121700 03010KT P6SM VCSH FEW030 BKN090=



000
FTUS45 KRIW 111500 AAB
TAFCOD
TAF AMD
KCOD 111520Z 1115/1212 36012G22KT P6SM FEW022 BKN110
     FM111900 03009KT P6SM VCTS SCT070CB BKN100
     FM120300 30007KT P6SM SCT110 BKN150
      AMD LTD TO CLD VIS AND WIND=



000
FTUS45 KRIW 111400 AAA
TAFCOD
TAF AMD
KCOD 111450Z 1115/1212 VRB05KT P6SM SCT110
     FM111530 02012KT P6SM FEW022 BKN110
     FM111900 03009KT P6SM VCTS SCT070CB BKN100
     FM120300 30007KT P6SM SCT110 BKN150
      AMD LTD TO CLD VIS AND WIND=



    US Dept of Commerce
    National Oceanic and Atmospheric Administration
    National Weather Service
    1325 East West Highway
    Silver Spring, MD 20910
    Page Author: NWS Internet Services Team
Disclaimer
Information Quality
Credits
Glossary
Privacy Policy
Freedom of Information Act (FOIA)
About Us
Career Opportunities